createdAt,value
2022-09-09T00:00:42.625Z,1.27
2022-09-09T00:03:17.896Z,1.55
2022-09-09T00:05:56.661Z,1.65
2022-09-09T00:08:37.097Z,1.50
2022-09-09T00:11:07.670Z,1.43
2022-09-09T00:13:41.358Z,1.40
2022-09-09T00:16:17.261Z,1.40
2022-09-09T00:18:54.099Z,1.30
2022-09-09T00:21:40.706Z,1.27
2022-09-09T00:24:19.216Z,1.20
2022-09-09T00:27:16.499Z,1.43
2022-09-09T00:29:58.440Z,1.10
2022-09-09T00:32:31.396Z,1.30
2022-09-09T00:35:04.252Z,1.23
2022-09-09T00:37:41.843Z,1.35
2022-09-09T00:40:24.175Z,1.13
2022-09-09T00:43:06.133Z,1.30
2022-09-09T00:45:58.670Z,1.10
2022-09-09T00:48:36.939Z,1.33
2022-09-09T00:51:12.281Z,0.80
2022-09-09T00:53:59.402Z,0.85
2022-09-09T00:56:38.215Z,1.02
2022-09-09T00:59:19.263Z,0.80
2022-09-09T01:01:47.281Z,1.10
2022-09-09T01:04:21.413Z,1.00
2022-09-09T01:07:00.110Z,0.90
2022-09-09T01:09:50.298Z,0.65
2022-09-09T01:12:44.886Z,0.80
2022-09-09T01:15:19.631Z,0.90
2022-09-09T01:17:59.032Z,0.90
2022-09-09T01:20:33.391Z,0.75
2022-09-09T01:23:28.195Z,0.80
2022-09-09T01:26:18.235Z,0.70
2022-09-09T01:28:49.890Z,1.00
2022-09-09T01:31:31.623Z,0.80
2022-09-09T01:33:59.537Z,0.63
2022-09-09T01:36:34.573Z,0.80
2022-09-09T01:39:02.331Z,0.80
2022-09-09T01:41:39.367Z,0.65
2022-09-09T01:44:23.531Z,0.70
2022-09-09T01:46:51.427Z,0.80
2022-09-09T01:50:23.080Z,0.73
2022-09-09T01:53:13.852Z,0.80
2022-09-09T01:56:18.237Z,1.00
2022-09-09T01:59:43.648Z,1.00
2022-09-09T02:02:37.696Z,0.70
2022-09-09T02:05:31.023Z,0.80
2022-09-09T02:08:07.585Z,0.90
2022-09-09T02:10:57.260Z,0.85
2022-09-09T02:13:25.537Z,1.00
2022-09-09T02:16:05.862Z,0.80
2022-09-09T02:19:25.753Z,0.70
2022-09-09T02:21:56.472Z,0.73
2022-09-09T02:24:25.818Z,0.90
2022-09-09T02:26:56.732Z,0.70
2022-09-09T02:29:28.577Z,0.60
2022-09-09T02:32:07.088Z,0.83
2022-09-09T02:34:39.454Z,0.73
2022-09-09T02:37:36.004Z,1.00
2022-09-09T02:40:04.723Z,0.90
2022-09-09T02:42:46.579Z,0.80
2022-09-09T02:45:26.139Z,1.00
2022-09-09T02:48:39.312Z,0.77
2022-09-09T02:51:21.222Z,0.80
2022-09-09T02:54:29.926Z,0.68
2022-09-09T03:00:48.903Z,0.75
2022-09-09T03:03:18.871Z,0.90
2022-09-09T03:06:08.238Z,0.90
2022-09-09T03:08:39.756Z,0.80
2022-09-09T03:11:55.618Z,0.90
2022-09-09T03:14:26.139Z,0.70
2022-09-09T03:16:55.156Z,0.85
2022-09-09T03:19:50.626Z,0.90
2022-09-09T03:22:46.131Z,0.65
2022-09-09T03:25:27.540Z,1.00
2022-09-09T03:28:16.219Z,0.80
2022-09-09T03:30:44.114Z,0.80
2022-09-09T03:33:18.332Z,0.80
2022-09-09T03:35:49.687Z,0.85
2022-09-09T03:38:24.600Z,0.82
2022-09-09T03:40:56.127Z,0.80
2022-09-09T03:43:24.165Z,0.82
2022-09-09T03:45:52.487Z,0.80
2022-09-09T03:48:25.568Z,0.70
2022-09-09T03:50:56.918Z,0.90
2022-09-09T03:53:46.836Z,1.10
2022-09-09T03:56:15.557Z,0.90
2022-09-09T03:58:49.629Z,0.82
2022-09-09T04:01:19.303Z,0.80
2022-09-09T04:03:47.539Z,0.85
2022-09-09T04:06:17.892Z,0.80
2022-09-09T04:08:50.710Z,0.70
2022-09-09T04:11:18.924Z,0.70
2022-09-09T04:13:46.612Z,0.80
2022-09-09T04:16:17.694Z,0.98
2022-09-09T04:18:45.706Z,0.77
2022-09-09T04:21:14.194Z,0.90
2022-09-09T04:23:52.530Z,0.82
2022-09-09T04:26:23.540Z,0.85
2022-09-09T04:28:51.976Z,0.80
2022-09-09T04:31:25.406Z,0.77
2022-09-09T04:33:59.609Z,0.80
2022-09-09T04:36:30.975Z,0.80
2022-09-09T04:39:08.705Z,0.90
2022-09-09T04:42:16.940Z,0.90
2022-09-09T04:45:58.069Z,0.90
2022-09-09T04:48:36.235Z,0.90
2022-09-09T04:51:05.959Z,1.00
2022-09-09T04:53:35.817Z,0.77
2022-09-09T04:59:43.555Z,1.00
2022-09-09T05:02:11.279Z,0.90
2022-09-09T05:04:38.965Z,0.85
2022-09-09T05:07:07.638Z,1.00
2022-09-09T05:09:35.685Z,1.00
2022-09-09T05:12:07.155Z,0.90
2022-09-09T05:14:37.256Z,0.98
2022-09-09T05:17:09.858Z,1.00
2022-09-09T05:19:53.519Z,1.25
2022-09-09T05:22:22.352Z,1.20
2022-09-09T05:24:52.430Z,1.02
2022-09-09T05:27:21.679Z,1.10
2022-09-09T05:29:50.568Z,1.10
2022-09-09T05:32:18.399Z,1.20
2022-09-09T05:34:46.136Z,1.10
2022-09-09T05:37:13.810Z,1.20
2022-09-09T05:39:41.793Z,1.10
2022-09-09T05:42:09.734Z,1.00
2022-09-09T05:44:39.261Z,1.10
2022-09-09T05:47:08.972Z,0.90
2022-09-09T05:49:39.269Z,0.95
2022-09-09T05:52:07.599Z,1.10
2022-09-09T05:54:35.316Z,1.13
2022-09-09T05:57:02.963Z,1.25
2022-09-09T05:59:30.728Z,1.52
2022-09-09T06:02:00.177Z,1.13
2022-09-09T06:04:28.002Z,1.10
2022-09-09T06:06:55.720Z,1.00
2022-09-09T06:09:32.479Z,1.00
2022-09-09T06:12:00.187Z,1.30
2022-09-09T06:14:28.257Z,1.20
2022-09-09T06:16:56.165Z,1.02
2022-09-09T06:19:27.769Z,1.38
2022-09-09T06:21:55.804Z,1.13
2022-09-09T06:24:23.432Z,1.23
2022-09-09T06:26:53.030Z,1.20
2022-09-09T06:29:20.836Z,1.40
2022-09-09T06:31:48.674Z,1.40
2022-09-09T06:34:16.530Z,1.20
2022-09-09T06:36:47.155Z,1.30
2022-09-09T06:39:16.376Z,1.15
2022-09-09T06:41:44.584Z,1.30
2022-09-09T06:44:13.642Z,1.30
2022-09-09T06:46:41.744Z,1.00
2022-09-09T06:49:10.056Z,1.20
2022-09-09T06:51:43.854Z,1.48
2022-09-09T06:54:14.020Z,1.42
2022-09-09T06:56:44.278Z,1.45
2022-09-09T06:59:13.413Z,1.50
2022-09-09T07:01:42.778Z,1.25
2022-09-09T07:04:11.925Z,1.43
2022-09-09T07:06:41.789Z,1.38
2022-09-09T07:09:11.907Z,1.20
2022-09-09T07:11:43.354Z,1.20
2022-09-09T07:14:13.815Z,1.30
2022-09-09T07:16:41.662Z,1.38
2022-09-09T07:19:10.420Z,1.20
2022-09-09T07:21:38.140Z,1.10
2022-09-09T07:24:08.313Z,1.35
2022-09-09T07:26:39.354Z,1.30
2022-09-09T07:29:20.605Z,1.50
2022-09-09T07:31:49.357Z,1.40
2022-09-09T07:34:17.369Z,1.40
2022-09-09T07:36:45.182Z,1.33
2022-09-09T07:39:15.364Z,1.27
2022-09-09T07:41:44.465Z,1.52
2022-09-09T07:44:18.646Z,1.25
2022-09-09T07:46:47.154Z,1.60
2022-09-09T07:49:15.623Z,1.40
2022-09-09T07:51:47.888Z,1.70
2022-09-09T07:54:20.943Z,1.15
2022-09-09T07:56:50.328Z,1.13
2022-09-09T08:02:16.848Z,1.20
2022-09-09T08:04:44.601Z,1.42
2022-09-09T08:07:13.062Z,1.38
2022-09-09T08:09:45.436Z,1.30
2022-09-09T08:12:22.524Z,1.27
2022-09-09T08:15:23.797Z,1.40
2022-09-09T08:17:51.460Z,1.55
2022-09-09T08:20:19.241Z,1.20
2022-09-09T08:22:47.094Z,1.20
2022-09-09T08:25:14.856Z,1.20
2022-09-09T08:27:43.075Z,1.10
2022-09-09T08:30:14.023Z,1.07
2022-09-09T08:32:44.856Z,1.08
2022-09-09T08:35:17.194Z,1.10
2022-09-09T08:37:44.979Z,1.05
2022-09-09T08:40:23.670Z,1.17
2022-09-09T08:42:54.854Z,1.10
2022-09-09T08:45:37.567Z,1.20
2022-09-09T08:48:29.156Z,1.20
2022-09-09T08:51:02.959Z,1.33
2022-09-09T08:53:40.592Z,1.20
2022-09-09T08:56:16.296Z,1.20
2022-09-09T08:58:51.538Z,1.10
2022-09-09T09:01:45.431Z,1.20
2022-09-09T09:07:41.224Z,1.20
2022-09-09T09:11:10.538Z,1.35
2022-09-09T09:13:47.238Z,1.20
2022-09-09T09:16:28.181Z,1.40
2022-09-09T09:19:15.310Z,1.17
2022-09-09T09:21:45.879Z,1.00
2022-09-09T09:24:34.244Z,1.20
2022-09-09T09:30:29.941Z,1.20
2022-09-09T09:33:02.358Z,1.23
2022-09-09T09:35:44.843Z,1.42
2022-09-09T09:41:40.751Z,1.23
2022-09-09T09:44:26.224Z,1.20
2022-09-09T09:47:04.278Z,1.20
2022-09-09T09:49:37.314Z,1.27
2022-09-09T09:52:40.688Z,1.35
2022-09-09T09:59:18.046Z,1.20
2022-09-09T10:02:17.168Z,1.20
2022-09-09T10:04:46.414Z,1.30
2022-09-09T10:07:41.988Z,1.10
2022-09-09T10:10:20.139Z,1.00
2022-09-09T10:13:00.750Z,1.00
2022-09-09T10:15:44.593Z,1.02
2022-09-09T10:19:03.302Z,1.10
2022-09-09T10:22:15.272Z,1.33
2022-09-09T10:25:51.556Z,1.40
2022-09-09T10:28:51.046Z,1.10
2022-09-09T10:31:33.011Z,1.10
2022-09-09T10:34:14.451Z,0.90
2022-09-09T10:36:50.109Z,1.10
2022-09-09T10:39:33.604Z,1.00
2022-09-09T10:42:09.279Z,1.10
2022-09-09T10:45:03.188Z,1.10
2022-09-09T10:47:59.270Z,1.00
2022-09-09T10:51:00.509Z,1.10
2022-09-09T10:53:47.740Z,1.20
2022-09-09T10:56:39.227Z,1.00
2022-09-09T10:59:13.362Z,0.90
2022-09-09T11:01:54.989Z,0.90
2022-09-09T11:04:26.237Z,1.00
2022-09-09T11:07:08.466Z,1.03
2022-09-09T11:09:45.274Z,1.10
2022-09-09T11:12:23.202Z,1.30
2022-09-09T11:19:23.843Z,0.70
2022-09-09T11:22:19.904Z,1.25
2022-09-09T11:42:22.910Z,0.93
2022-09-09T11:49:19.137Z,1.05
2022-09-09T12:39:18.104Z,0.52
2022-09-09T12:42:32.799Z,0.60
2022-09-09T15:16:50.341Z,0.50
2022-09-09T15:19:18.904Z,0.50
2022-09-09T15:21:46.687Z,0.63
2022-09-09T15:24:14.779Z,0.30
2022-09-09T15:26:42.735Z,0.30
2022-09-09T15:29:11.356Z,0.40
2022-09-09T15:31:39.329Z,0.30
2022-09-09T15:34:09.434Z,0.43
2022-09-09T15:36:38.793Z,0.45
2022-09-09T15:39:10.753Z,0.38
2022-09-09T15:41:38.831Z,0.40
2022-09-09T15:44:06.679Z,0.30
2022-09-09T15:46:41.840Z,0.50
2022-09-09T15:49:27.553Z,0.50
2022-09-09T15:52:12.679Z,0.40
2022-09-09T15:54:41.123Z,0.32
2022-09-09T15:57:16.668Z,0.40
2022-09-09T15:59:46.459Z,0.50
2022-09-09T16:02:14.361Z,0.50
2022-09-09T16:04:45.911Z,0.40
2022-09-09T16:07:14.490Z,0.60
2022-09-09T16:09:44.337Z,0.55
2022-09-09T16:12:13.872Z,0.52
2022-09-09T16:14:42.292Z,0.60
2022-09-09T16:17:24.208Z,0.60
2022-09-09T16:19:58.810Z,0.60
2022-09-09T16:22:54.369Z,0.60
2022-09-09T16:25:23.006Z,0.50
2022-09-09T16:27:50.931Z,0.60
2022-09-09T16:30:21.235Z,0.88
2022-09-09T16:32:50.439Z,0.50
2022-09-09T16:38:05.182Z,0.63
2022-09-09T16:40:35.981Z,0.55
2022-09-09T16:43:03.856Z,0.73
2022-09-09T16:45:37.222Z,0.85
2022-09-09T16:48:05.278Z,1.20
2022-09-09T16:50:36.623Z,0.70
2022-09-09T16:53:09.821Z,0.52
2022-09-09T16:55:53.062Z,0.90
2022-09-09T16:58:24.285Z,0.50
2022-09-09T17:01:12.676Z,0.60
2022-09-09T17:03:50.858Z,0.88
2022-09-09T17:06:22.452Z,1.10
2022-09-09T17:09:14.102Z,0.60
2022-09-09T17:11:42.439Z,0.65
2022-09-09T17:14:16.501Z,0.73
2022-09-09T17:16:50.992Z,0.65
2022-09-09T17:19:19.991Z,0.20
2022-09-09T17:22:14.763Z,0.50
2022-09-09T17:24:39.860Z,0.50
2022-09-09T17:27:08.020Z,0.30
2022-09-09T17:29:37.072Z,0.40
2022-09-09T17:32:09.936Z,0.82
2022-09-09T17:34:38.894Z,0.40
2022-09-09T17:37:11.691Z,0.75
2022-09-09T17:39:44.835Z,0.68
2022-09-09T17:42:12.732Z,0.68
2022-09-09T17:44:41.117Z,0.80
2022-09-09T17:52:32.066Z,0.75
2022-09-09T17:55:00.878Z,0.80
2022-09-09T18:01:04.257Z,0.70
2022-09-09T18:03:38.832Z,0.50
2022-09-09T18:06:09.182Z,0.70
2022-09-09T18:08:38.409Z,0.55
2022-09-09T18:11:06.801Z,0.50
2022-09-09T18:13:35.239Z,0.50
2022-09-09T18:16:05.222Z,0.70
2022-09-09T18:18:33.052Z,0.60
2022-09-09T18:21:01.812Z,0.70
2022-09-09T18:23:31.474Z,0.93
2022-09-09T18:26:07.883Z,0.75
2022-09-09T18:28:36.222Z,0.55
2022-09-09T18:31:07.230Z,0.63
2022-09-09T18:33:37.684Z,0.82
2022-09-09T18:36:08.120Z,0.70
2022-09-09T18:38:59.851Z,0.80
2022-09-09T18:41:39.430Z,0.60
2022-09-09T18:44:15.733Z,0.63
2022-09-09T18:46:45.128Z,1.20
2022-09-09T18:49:18.266Z,1.17
2022-09-09T18:51:46.948Z,0.80
2022-09-09T18:54:17.448Z,0.70
2022-09-09T18:56:48.667Z,1.00
2022-09-09T18:59:33.709Z,0.70
2022-09-09T19:02:02.042Z,0.80
2022-09-09T19:04:29.939Z,0.60
2022-09-09T19:06:58.777Z,0.60
2022-09-09T19:09:29.523Z,0.82
2022-09-09T20:08:48.368Z,1.00
2022-09-09T21:22:46.064Z,1.33
2022-09-09T21:25:53.194Z,1.10
2022-09-09T21:28:36.840Z,1.10
2022-09-09T21:31:15.370Z,1.35
2022-09-09T21:33:47.715Z,1.10
2022-09-09T21:36:24.377Z,1.30
2022-09-09T21:39:06.455Z,1.30
2022-09-09T21:41:37.541Z,1.60
2022-09-09T21:44:05.719Z,1.00
2022-09-09T21:47:20.888Z,1.40
2022-09-09T21:49:48.930Z,1.30
2022-09-09T21:52:20.365Z,1.23
2022-09-09T21:54:49.693Z,1.30
2022-09-09T21:57:21.736Z,1.42
2022-09-09T22:00:02.911Z,1.20
2022-09-09T22:02:34.471Z,1.20
2022-09-09T22:08:44.975Z,1.05
2022-09-09T22:12:24.143Z,1.10
2022-09-09T22:14:54.335Z,1.40
2022-09-09T22:17:24.433Z,1.10
2022-09-09T22:19:54.305Z,1.10
2022-09-09T22:22:22.937Z,1.08
2022-09-09T22:24:57.187Z,1.10
2022-09-09T22:27:28.128Z,0.90
2022-09-09T22:30:04.150Z,1.00
2022-09-09T22:32:41.781Z,1.10
2022-09-09T22:35:13.534Z,1.17
2022-09-09T22:37:50.957Z,1.23
2022-09-09T22:40:23.463Z,1.20
2022-09-09T22:42:52.908Z,1.20
2022-09-09T22:45:30.398Z,1.10
2022-09-09T22:48:06.668Z,1.10
2022-09-09T22:50:42.502Z,1.30
2022-09-09T22:56:15.337Z,1.48
2022-09-09T22:58:43.338Z,1.10
2022-09-09T23:01:19.977Z,1.15
2022-09-09T23:04:02.982Z,1.47
2022-09-09T23:06:34.695Z,1.33
2022-09-09T23:09:06.765Z,1.30
2022-09-09T23:12:19.222Z,1.20
2022-09-09T23:15:10.149Z,1.00
2022-09-09T23:18:12.394Z,1.10
2022-09-09T23:20:40.535Z,1.08
2022-09-09T23:23:13.752Z,1.25
2022-09-09T23:26:33.754Z,1.08
2022-09-09T23:29:42.645Z,1.20
2022-09-09T23:32:52.763Z,1.30
2022-09-09T23:36:48.330Z,0.90
2022-09-09T23:40:08.594Z,1.20
2022-09-09T23:43:32.646Z,1.00
2022-09-09T23:46:55.513Z,0.87
2022-09-09T23:50:45.824Z,0.90
2022-09-09T23:57:35.659Z,0.90
